Time;durP1;ratioP1;P1;durP2;ratioP2;P2;SDS_P1;SDS_P2;PMS_P1;PMS_P2;Temp;Humidity;BMP_temperature;BMP_pressure;BME280_temperature;BME280_humidity;BME280_pressure;Samples;Min_cycle;Max_cycle;Signal;HPM_P1;HPM_P2
2022/02/12 00:02:11;;;;;;;17.50;12.03;;;;;;;;;;762485;177;920281;-63
2022/02/12 00:04:36;;;;;;;21.97;13.00;;;;;;;;;;773812;180;913654;-62
2022/02/12 00:07:03;;;;;;;17.67;12.63;;;;;;;;;;774286;180;916169;-62
2022/02/12 00:09:28;;;;;;;16.70;10.70;;;;;;;;;;773151;180;920007;-63
2022/02/12 00:11:54;;;;;;;19.55;10.68;;;;;;;;;;773316;181;919793;-63
2022/02/12 00:14:20;;;;;;;17.43;11.43;;;;;;;;;;775898;180;912624;-64
2022/02/12 00:16:46;;;;;;;12.10;9.90;;;;;;;;;;772334;180;911539;-61
2022/02/12 00:19:12;;;;;;;19.03;10.73;;;;;;;;;;772410;180;918899;-62
2022/02/12 00:21:38;;;;;;;13.63;9.50;;;;;;;;;;774496;181;918567;-62
2022/02/12 00:24:04;;;;;;;14.00;9.63;;;;;;;;;;774044;180;918330;-63
2022/02/12 00:26:30;;;;;;;14.87;9.83;;;;;;;;;;769473;178;915972;-63
2022/02/12 00:28:56;;;;;;;14.17;9.77;;;;;;;;;;767950;180;919841;-62
2022/02/12 00:31:21;;;;;;;13.03;9.90;;;;;;;;;;777112;181;916779;-63
2022/02/12 00:33:47;;;;;;;14.33;9.27;;;;;;;;;;773100;177;918933;-64
2022/02/12 00:36:13;;;;;;;13.73;8.50;;;;;;;;;;774093;178;915367;-63
2022/02/12 00:38:39;;;;;;;15.83;10.20;;;;;;;;;;773562;180;916259;-63
2022/02/12 00:41:05;;;;;;;18.30;10.33;;;;;;;;;;770089;180;964613;-63
2022/02/12 00:43:31;;;;;;;13.07;8.43;;;;;;;;;;768926;179;914875;-64
2022/02/12 00:45:57;;;;;;;11.67;10.00;;;;;;;;;;779272;180;916262;-64
2022/02/12 00:48:22;;;;;;;14.37;10.20;;;;;;;;;;772903;180;916020;-64
2022/02/12 00:50:48;;;;;;;15.43;10.77;;;;;;;;;;773277;180;916446;-64
2022/02/12 00:53:14;;;;;;;16.77;10.87;;;;;;;;;;771392;180;915454;-64
2022/02/12 00:55:40;;;;;;;18.73;9.83;;;;;;;;;;778682;180;916378;-64
2022/02/12 00:58:06;;;;;;;14.37;9.43;;;;;;;;;;757466;181;916328;-64
2022/02/12 01:00:33;;;;;;;18.27;10.23;;;;;;;;;;770741;179;919343;-64
2022/02/12 01:02:57;;;;;;;17.50;10.80;;;;;;;;;;781631;180;919594;-63
2022/02/12 01:05:23;;;;;;;16.00;9.60;;;;;;;;;;768166;180;916635;-64
2022/02/12 01:07:49;;;;;;;15.50;11.03;;;;;;;;;;771412;180;919069;-65
2022/02/12 01:10:15;;;;;;;13.17;10.13;;;;;;;;;;780227;180;917150;-64
2022/02/12 01:12:41;;;;;;;18.20;10.53;;;;;;;;;;773062;180;916530;-64
2022/02/12 01:15:07;;;;;;;13.37;9.30;;;;;;;;;;761179;181;916200;-64
2022/02/12 01:17:35;;;;;;;20.97;10.53;;;;;;;;;;768576;181;920520;-65
2022/02/12 01:19:59;;;;;;;16.87;11.60;;;;;;;;;;771244;178;1163540;-64
2022/02/12 01:22:25;;;;;;;18.58;11.90;;;;;;;;;;769939;178;918109;-65
2022/02/12 01:24:51;;;;;;;20.30;12.10;;;;;;;;;;770644;179;916139;-64
2022/02/12 01:27:17;;;;;;;16.57;10.43;;;;;;;;;;776165;181;916483;-63
2022/02/12 01:29:42;;;;;;;22.40;12.17;;;;;;;;;;773184;180;916388;-67
2022/02/12 01:32:08;;;;;;;15.20;10.53;;;;;;;;;;769696;181;914622;-64
2022/02/12 01:34:34;;;;;;;19.35;11.88;;;;;;;;;;777724;178;918469;-64
2022/02/12 01:37:00;;;;;;;17.53;11.60;;;;;;;;;;762443;181;916842;-64
2022/02/12 01:39:26;;;;;;;17.98;11.38;;;;;;;;;;771699;178;1018532;-65
2022/02/12 01:41:53;;;;;;;15.57;11.30;;;;;;;;;;771443;181;918046;-64
2022/02/12 01:44:18;;;;;;;18.90;12.10;;;;;;;;;;771193;179;916378;-64
2022/02/12 01:46:43;;;;;;;15.20;10.37;;;;;;;;;;769067;178;918786;-65
2022/02/12 01:49:09;;;;;;;17.67;11.93;;;;;;;;;;773922;180;915984;-65
2022/02/12 01:51:37;;;;;;;16.67;10.43;;;;;;;;;;777350;180;916352;-64
2022/02/12 01:54:01;;;;;;;19.12;11.43;;;;;;;;;;772585;178;916465;-65
2022/02/12 01:56:27;;;;;;;17.77;10.77;;;;;;;;;;772228;180;918367;-65
2022/02/12 01:58:53;;;;;;;18.17;10.63;;;;;;;;;;777365;180;1018361;-65
2022/02/12 02:01:18;;;;;;;14.47;10.90;;;;;;;;;;772231;180;916087;-65
2022/02/12 02:03:44;;;;;;;18.60;13.00;;;;;;;;;;772433;180;916040;-65
2022/02/12 02:06:10;;;;;;;14.17;9.80;;;;;;;;;;774933;180;916273;-66
2022/02/12 02:08:36;;;;;;;15.40;11.00;;;;;;;;;;773664;178;916050;-65
2022/02/12 02:11:02;;;;;;;14.73;9.57;;;;;;;;;;770399;177;918488;-65
2022/02/12 02:13:28;;;;;;;15.00;10.57;;;;;;;;;;770552;177;915630;-65
2022/02/12 02:15:53;;;;;;;17.67;13.00;;;;;;;;;;781035;180;915931;-67
2022/02/12 02:18:19;;;;;;;17.03;11.23;;;;;;;;;;774110;177;915561;-65
2022/02/12 02:20:45;;;;;;;15.67;12.00;;;;;;;;;;774977;180;917495;-64
2022/02/12 02:23:11;;;;;;;16.13;11.70;;;;;;;;;;780541;179;919417;-64
2022/02/12 02:25:37;;;;;;;20.75;13.62;;;;;;;;;;771919;180;1019035;-65
2022/02/12 02:28:03;;;;;;;17.90;12.77;;;;;;;;;;774848;177;914734;-66
2022/02/12 02:30:30;;;;;;;21.00;13.33;;;;;;;;;;779530;178;920972;-66
2022/02/12 02:32:55;;;;;;;20.17;12.87;;;;;;;;;;775294;178;915569;-65
2022/02/12 02:35:22;;;;;;;20.63;13.63;;;;;;;;;;772570;180;915852;-65
2022/02/12 02:37:47;;;;;;;33.97;16.33;;;;;;;;;;770927;177;918432;-65
2022/02/12 02:40:13;;;;;;;30.93;19.27;;;;;;;;;;770521;181;916116;-65
2022/02/12 02:42:39;;;;;;;25.87;16.30;;;;;;;;;;769305;180;916728;-66
2022/02/12 02:45:05;;;;;;;34.30;19.10;;;;;;;;;;772018;178;918971;-66
2022/02/12 02:47:33;;;;;;;28.77;18.90;;;;;;;;;;779552;177;918689;-66
2022/02/12 02:49:58;;;;;;;24.73;16.23;;;;;;;;;;771335;180;918726;-65
2022/02/12 02:57:27;;;;;;;29.97;18.10;;;;;;;;;;778280;178;914510;-66
2022/02/12 02:59:53;;;;;;;24.67;15.60;;;;;;;;;;773836;178;915638;-66
2022/02/12 03:02:20;;;;;;;26.10;16.00;;;;;;;;;;772220;178;920099;-66
2022/02/12 03:04:45;;;;;;;28.58;16.30;;;;;;;;;;779666;179;918903;-66
2022/02/12 03:07:11;;;;;;;22.57;15.60;;;;;;;;;;768892;180;918514;-66
2022/02/12 03:09:37;;;;;;;31.63;18.47;;;;;;;;;;771239;179;1013828;-66
2022/02/12 03:12:03;;;;;;;27.47;17.47;;;;;;;;;;770415;178;915683;-66
2022/02/12 03:14:29;;;;;;;23.10;14.90;;;;;;;;;;769862;180;914903;-66
2022/02/12 03:16:54;;;;;;;26.20;17.07;;;;;;;;;;767616;179;916241;-66
2022/02/12 03:19:20;;;;;;;25.13;14.80;;;;;;;;;;760836;183;915451;-66
2022/02/12 03:21:46;;;;;;;28.20;15.50;;;;;;;;;;771927;181;914871;-66
2022/02/12 03:24:12;;;;;;;28.13;15.70;;;;;;;;;;778548;178;920533;-66
2022/02/12 03:26:38;;;;;;;25.30;15.83;;;;;;;;;;771050;180;916138;-66
2022/02/12 03:29:04;;;;;;;23.90;15.00;;;;;;;;;;779254;181;913344;-66
2022/02/12 03:31:29;;;;;;;25.37;15.17;;;;;;;;;;777375;178;915696;-66
2022/02/12 03:33:56;;;;;;;29.17;16.03;;;;;;;;;;779505;177;628534;-66
2022/02/12 03:36:21;;;;;;;21.80;15.10;;;;;;;;;;775937;177;917447;-65
2022/02/12 03:38:49;;;;;;;21.97;15.60;;;;;;;;;;767124;181;920022;-66
2022/02/12 03:41:13;;;;;;;22.10;14.80;;;;;;;;;;755719;184;988820;-66
2022/02/12 03:43:39;;;;;;;23.00;14.35;;;;;;;;;;753681;182;919265;-65
2022/02/12 03:46:05;;;;;;;20.73;13.07;;;;;;;;;;781243;177;918213;-66
2022/02/12 03:48:31;;;;;;;26.67;14.87;;;;;;;;;;776041;176;919246;-66
2022/02/12 03:50:57;;;;;;;25.27;14.97;;;;;;;;;;776337;180;916313;-66
2022/02/12 03:53:23;;;;;;;25.60;15.30;;;;;;;;;;778133;177;912032;-65
2022/02/12 03:55:48;;;;;;;22.87;14.53;;;;;;;;;;772643;180;919338;-66
2022/02/12 03:58:14;;;;;;;24.90;14.67;;;;;;;;;;760914;180;913456;-65
2022/02/12 04:00:40;;;;;;;24.10;15.40;;;;;;;;;;770504;180;917445;-65
2022/02/12 04:03:06;;;;;;;21.87;14.40;;;;;;;;;;766197;179;919418;-66
2022/02/12 04:05:32;;;;;;;19.50;13.33;;;;;;;;;;773110;179;910505;-64
2022/02/12 04:07:58;;;;;;;21.37;14.40;;;;;;;;;;776759;177;910507;-65
2022/02/12 04:10:24;;;;;;;21.53;14.20;;;;;;;;;;780005;180;915187;-67
2022/02/12 04:12:51;;;;;;;16.12;10.98;;;;;;;;;;773788;180;916698;-64
2022/02/12 04:15:15;;;;;;;23.40;10.87;;;;;;;;;;772573;179;916892;-64
2022/02/12 04:17:41;;;;;;;18.92;10.90;;;;;;;;;;778641;180;990964;-65
2022/02/12 04:20:08;;;;;;;20.53;11.80;;;;;;;;;;773571;178;916416;-64
2022/02/12 04:22:34;;;;;;;18.90;11.20;;;;;;;;;;772754;179;916918;-63
2022/02/12 04:25:00;;;;;;;15.63;10.47;;;;;;;;;;780287;178;916453;-64
2022/02/12 04:27:25;;;;;;;20.70;11.40;;;;;;;;;;764184;180;916247;-64
2022/02/12 04:29:51;;;;;;;13.77;8.57;;;;;;;;;;774134;177;968756;-64
2022/02/12 04:32:17;;;;;;;26.03;10.83;;;;;;;;;;770917;177;914901;-64
2022/02/12 04:34:43;;;;;;;15.77;9.77;;;;;;;;;;780853;177;915665;-64
2022/02/12 04:37:09;;;;;;;12.73;8.27;;;;;;;;;;776077;176;919210;-64
2022/02/12 04:39:35;;;;;;;17.17;10.17;;;;;;;;;;776139;177;915152;-64
2022/02/12 04:42:01;;;;;;;15.07;9.67;;;;;;;;;;783532;177;920603;-64
2022/02/12 04:44:26;;;;;;;16.97;9.23;;;;;;;;;;776388;178;918662;-64
2022/02/12 04:46:52;;;;;;;14.05;8.57;;;;;;;;;;772968;181;920715;-64
2022/02/12 04:49:22;;;;;;;15.80;8.97;;;;;;;;;;767746;182;920792;-64
2022/02/12 04:51:44;;;;;;;13.10;8.70;;;;;;;;;;757353;181;921161;-64
2022/02/12 04:54:10;;;;;;;13.85;7.55;;;;;;;;;;772656;178;986579;-64
2022/02/12 04:56:36;;;;;;;24.40;9.10;;;;;;;;;;775517;177;917830;-64
2022/02/12 04:59:01;;;;;;;18.13;9.13;;;;;;;;;;772720;180;917950;-64
2022/02/12 05:01:27;;;;;;;22.70;9.33;;;;;;;;;;773461;180;965972;-63
2022/02/12 05:03:53;;;;;;;11.47;7.47;;;;;;;;;;774204;180;936733;-62
2022/02/12 05:06:19;;;;;;;13.53;7.87;;;;;;;;;;778362;178;919485;-64
2022/02/12 05:08:45;;;;;;;13.00;7.90;;;;;;;;;;774826;178;919672;-63
2022/02/12 05:11:11;;;;;;;9.27;6.50;;;;;;;;;;772635;179;912048;-64
2022/02/12 05:13:37;;;;;;;21.73;13.00;;;;;;;;;;767158;182;919132;-63
2022/02/12 05:16:03;;;;;;;37.17;23.83;;;;;;;;;;763708;181;919612;-65
2022/02/12 05:18:29;;;;;;;17.35;13.38;;;;;;;;;;774156;178;918914;-65
2022/02/12 05:20:56;;;;;;;18.10;9.20;;;;;;;;;;772176;180;921033;-65
2022/02/12 05:23:20;;;;;;;11.60;7.80;;;;;;;;;;761061;180;920156;-64
2022/02/12 05:25:46;;;;;;;15.27;7.67;;;;;;;;;;768209;180;918945;-64
2022/02/12 05:28:12;;;;;;;17.30;9.27;;;;;;;;;;771498;179;1022085;-65
2022/02/12 05:30:40;;;;;;;10.70;8.35;;;;;;;;;;779062;177;917972;-65
2022/02/12 05:33:04;;;;;;;18.63;9.67;;;;;;;;;;766405;177;918743;-64
2022/02/12 05:35:30;;;;;;;14.43;9.60;;;;;;;;;;757225;177;919312;-65
2022/02/12 05:37:55;;;;;;;15.10;8.83;;;;;;;;;;780425;180;919645;-67
2022/02/12 05:40:21;;;;;;;12.53;8.30;;;;;;;;;;775230;179;920330;-65
2022/02/12 05:42:47;;;;;;;14.83;7.10;;;;;;;;;;773619;180;918280;-65
2022/02/12 05:45:13;;;;;;;11.33;6.57;;;;;;;;;;777646;180;918437;-65
2022/02/12 05:47:39;;;;;;;13.50;6.43;;;;;;;;;;765471;178;917920;-65
2022/02/12 05:50:05;;;;;;;11.93;6.80;;;;;;;;;;773988;177;918798;-65
2022/02/12 05:52:31;;;;;;;17.43;8.13;;;;;;;;;;773254;180;918737;-65
2022/02/12 05:54:57;;;;;;;50.80;22.23;;;;;;;;;;778081;179;918672;-65
2022/02/12 05:57:23;;;;;;;16.23;9.70;;;;;;;;;;769084;178;919429;-65
2022/02/12 05:59:49;;;;;;;25.83;12.47;;;;;;;;;;765634;181;919293;-65
2022/02/12 06:02:14;;;;;;;21.15;11.07;;;;;;;;;;775851;180;918125;-66
2022/02/12 06:04:40;;;;;;;18.97;11.67;;;;;;;;;;772601;178;920533;-66
2022/02/12 06:07:06;;;;;;;22.40;8.60;;;;;;;;;;774639;179;917775;-66
2022/02/12 06:09:32;;;;;;;17.93;10.00;;;;;;;;;;777723;177;1021774;-66
2022/02/12 06:11:58;;;;;;;23.93;13.60;;;;;;;;;;757258;181;933093;-66
2022/02/12 06:14:24;;;;;;;29.77;15.27;;;;;;;;;;765128;181;1021781;-66
2022/02/12 06:16:54;;;;;;;43.72;23.67;;;;;;;;;;777473;177;916290;-65
2022/02/12 06:19:16;;;;;;;25.83;14.13;;;;;;;;;;768976;181;920054;-66
2022/02/12 06:21:42;;;;;;;15.70;10.37;;;;;;;;;;768404;180;918939;-66
2022/02/12 06:24:08;;;;;;;16.40;11.40;;;;;;;;;;773067;180;920585;-68
2022/02/12 06:26:38;;;;;;;24.07;10.03;;;;;;;;;;775770;181;929831;-66
2022/02/12 06:29:01;;;;;;;30.00;17.23;;;;;;;;;;773378;180;918818;-66
2022/02/12 06:31:27;;;;;;;21.37;9.93;;;;;;;;;;773403;180;917245;-66
2022/02/12 06:33:53;;;;;;;24.20;13.20;;;;;;;;;;779969;178;917596;-66
2022/02/12 06:36:19;;;;;;;23.07;11.70;;;;;;;;;;769138;180;920598;-66
2022/02/12 06:38:45;;;;;;;31.83;17.50;;;;;;;;;;771653;178;919217;-66
2022/02/12 06:41:11;;;;;;;47.17;30.20;;;;;;;;;;767736;180;918386;-65
2022/02/12 06:43:37;;;;;;;44.73;26.27;;;;;;;;;;770076;180;935621;-66
2022/02/12 06:46:03;;;;;;;24.57;14.53;;;;;;;;;;772977;180;919041;-67
2022/02/12 06:48:29;;;;;;;23.23;12.90;;;;;;;;;;769926;178;940811;-66
2022/02/12 06:50:55;;;;;;;22.30;13.03;;;;;;;;;;773545;180;1003532;-66
2022/02/12 06:53:20;;;;;;;28.40;14.57;;;;;;;;;;758925;178;915001;-66
2022/02/12 06:55:46;;;;;;;20.63;13.23;;;;;;;;;;773384;180;918634;-66
2022/02/12 06:58:12;;;;;;;60.20;45.33;;;;;;;;;;778516;179;910048;-66
2022/02/12 07:00:38;;;;;;;26.02;17.35;;;;;;;;;;774652;177;920693;-66
2022/02/12 07:03:04;;;;;;;28.73;16.80;;;;;;;;;;767805;179;931137;-66
2022/02/12 07:05:30;;;;;;;25.03;11.53;;;;;;;;;;775761;181;920728;-66
2022/02/12 07:07:56;;;;;;;28.35;22.65;;;;;;;;;;771937;179;919260;-66
2022/02/12 07:10:21;;;;;;;24.87;17.10;;;;;;;;;;772184;180;918852;-66
2022/02/12 07:12:47;;;;;;;20.97;14.70;;;;;;;;;;771565;179;917794;-66
2022/02/12 07:15:13;;;;;;;19.97;10.70;;;;;;;;;;776663;180;920037;-66
2022/02/12 07:17:39;;;;;;;22.87;11.17;;;;;;;;;;763116;180;918210;-65
2022/02/12 07:20:05;;;;;;;16.93;9.23;;;;;;;;;;771067;177;1018424;-64
2022/02/12 07:22:31;;;;;;;17.07;11.50;;;;;;;;;;777870;178;915883;-64
2022/02/12 07:24:57;;;;;;;20.60;11.30;;;;;;;;;;771849;180;924062;-64
2022/02/12 07:27:23;;;;;;;21.23;9.90;;;;;;;;;;772515;180;917625;-63
2022/02/12 07:29:48;;;;;;;14.40;10.07;;;;;;;;;;777537;180;920654;-64
2022/02/12 07:32:14;;;;;;;14.10;9.23;;;;;;;;;;771579;181;918365;-65
2022/02/12 07:34:40;;;;;;;24.87;13.77;;;;;;;;;;763097;181;920320;-64
2022/02/12 07:37:06;;;;;;;21.90;10.10;;;;;;;;;;770457;181;919900;-63
2022/02/12 07:39:32;;;;;;;51.77;20.80;;;;;;;;;;769611;180;919179;-64
2022/02/12 07:41:58;;;;;;;25.95;15.82;;;;;;;;;;759167;181;919471;-64
2022/02/12 07:44:23;;;;;;;16.40;10.13;;;;;;;;;;763024;178;918265;-64
2022/02/12 07:46:50;;;;;;;12.87;8.80;;;;;;;;;;775592;180;916383;-65
2022/02/12 07:49:15;;;;;;;14.20;7.47;;;;;;;;;;772624;179;915443;-64
2022/02/12 07:51:41;;;;;;;15.97;7.77;;;;;;;;;;771123;180;931509;-64
2022/02/12 07:54:07;;;;;;;19.30;9.30;;;;;;;;;;776231;180;919790;-64
2022/02/12 07:56:33;;;;;;;20.20;11.17;;;;;;;;;;770629;180;1022585;-63
2022/02/12 07:58:59;;;;;;;11.70;6.90;;;;;;;;;;766177;180;2019642;-64
2022/02/12 08:01:25;;;;;;;21.58;8.23;;;;;;;;;;770270;177;917199;-63
2022/02/12 08:03:50;;;;;;;16.73;8.50;;;;;;;;;;772720;180;918365;-64
2022/02/12 08:08:49;;;;;;;13.07;7.87;;;;;;;;;;770566;178;918542;-65
2022/02/12 08:13:46;;;;;;;42.50;21.10;;;;;;;;;;778632;180;919196;-65
2022/02/12 08:16:11;;;;;;;10.10;6.53;;;;;;;;;;770853;180;918161;-65
2022/02/12 08:18:37;;;;;;;17.35;10.68;;;;;;;;;;773350;179;919791;-64
2022/02/12 08:21:03;;;;;;;19.67;11.63;;;;;;;;;;779158;181;919338;-64
2022/02/12 08:23:29;;;;;;;39.73;19.77;;;;;;;;;;774304;178;927510;-64
2022/02/12 08:25:55;;;;;;;111.00;44.83;;;;;;;;;;774717;177;922148;-66
2022/02/12 08:28:21;;;;;;;15.20;7.27;;;;;;;;;;775397;180;919215;-63
2022/02/12 08:30:46;;;;;;;47.10;23.90;;;;;;;;;;774657;178;914997;-65
2022/02/12 08:33:13;;;;;;;59.70;23.60;;;;;;;;;;776513;180;628966;-64
2022/02/12 08:35:40;;;;;;;20.03;12.23;;;;;;;;;;779088;180;916797;-63
2022/02/12 08:38:04;;;;;;;14.93;9.57;;;;;;;;;;775253;178;915462;-63
2022/02/12 08:40:30;;;;;;;30.40;13.00;;;;;;;;;;773758;180;919662;-62
2022/02/12 08:42:57;;;;;;;49.47;22.17;;;;;;;;;;769269;180;919723;-63
2022/02/12 08:45:23;;;;;;;46.63;18.70;;;;;;;;;;779980;178;919269;-63
2022/02/12 08:47:48;;;;;;;13.45;6.75;;;;;;;;;;771889;179;920111;-62
2022/02/12 08:50:15;;;;;;;22.03;13.60;;;;;;;;;;760715;184;922207;-62
2022/02/12 08:52:40;;;;;;;19.43;10.80;;;;;;;;;;773875;180;920003;-63
2022/02/12 08:55:06;;;;;;;24.43;13.90;;;;;;;;;;771894;177;917689;-62
2022/02/12 08:57:32;;;;;;;16.10;9.27;;;;;;;;;;761194;183;918472;-63
2022/02/12 08:59:58;;;;;;;17.30;6.77;;;;;;;;;;778844;178;813170;-62
2022/02/12 09:02:24;;;;;;;15.00;8.70;;;;;;;;;;766880;181;919242;-62
2022/02/12 09:04:49;;;;;;;19.80;12.43;;;;;;;;;;772352;180;916911;-61
2022/02/12 09:07:16;;;;;;;14.03;6.83;;;;;;;;;;770814;180;919224;-62
2022/02/12 09:09:42;;;;;;;19.10;9.60;;;;;;;;;;778406;180;918815;-62
2022/02/12 09:12:07;;;;;;;15.17;7.93;;;;;;;;;;758096;184;919719;-62
2022/02/12 09:14:33;;;;;;;10.40;7.27;;;;;;;;;;762336;180;1021468;-62
2022/02/12 09:16:59;;;;;;;8.57;5.63;;;;;;;;;;777187;177;917401;-62
2022/02/12 09:19:25;;;;;;;12.97;6.87;;;;;;;;;;769556;181;919259;-61
2022/02/12 09:21:51;;;;;;;14.97;7.17;;;;;;;;;;773225;179;920447;-61
2022/02/12 09:24:16;;;;;;;8.73;5.47;;;;;;;;;;780145;177;919317;-62
2022/02/12 09:26:42;;;;;;;20.03;10.10;;;;;;;;;;767528;180;918761;-60
2022/02/12 09:29:08;;;;;;;13.87;5.00;;;;;;;;;;766243;181;919486;-60
2022/02/12 09:31:34;;;;;;;5.47;4.70;;;;;;;;;;777680;180;919522;-60
2022/02/12 09:34:00;;;;;;;10.87;5.53;;;;;;;;;;771777;181;624854;-60
2022/02/12 09:36:26;;;;;;;9.60;5.20;;;;;;;;;;776056;180;627466;-61
2022/02/12 09:38:51;;;;;;;8.40;6.18;;;;;;;;;;770359;180;919296;-62
2022/02/12 09:41:23;;;;;;;11.00;5.63;;;;;;;;;;770751;180;920732;-61
2022/02/12 09:43:45;;;;;;;8.57;5.37;;;;;;;;;;774621;180;918319;-61
2022/02/12 09:46:14;;;;;;;25.03;10.33;;;;;;;;;;775700;180;918813;-62
2022/02/12 09:48:40;;;;;;;15.57;6.20;;;;;;;;;;774703;180;920034;-62
2022/02/12 09:51:05;;;;;;;7.37;4.60;;;;;;;;;;770631;180;917933;-61
2022/02/12 09:53:31;;;;;;;11.93;6.47;;;;;;;;;;763111;178;918937;-61
2022/02/12 09:55:57;;;;;;;7.83;5.17;;;;;;;;;;770695;181;918728;-61
2022/02/12 09:58:23;;;;;;;12.00;7.03;;;;;;;;;;773490;180;877731;-62
2022/02/12 10:00:49;;;;;;;19.93;8.67;;;;;;;;;;760296;181;920158;-61
2022/02/12 10:03:15;;;;;;;24.03;11.30;;;;;;;;;;765676;181;919197;-62
2022/02/12 10:05:42;;;;;;;11.40;4.83;;;;;;;;;;779165;181;920086;-61
2022/02/12 10:08:12;;;;;;;9.87;4.47;;;;;;;;;;770794;181;918994;-60
2022/02/12 10:10:36;;;;;;;9.80;5.93;;;;;;;;;;764531;182;919643;-61
2022/02/12 10:13:08;;;;;;;11.50;6.40;;;;;;;;;;767306;179;2146952;-59
2022/02/12 10:15:34;;;;;;;28.17;13.70;;;;;;;;;;772502;181;918646;-61
2022/02/12 10:17:59;;;;;;;26.97;15.50;;;;;;;;;;766431;180;919811;-60
2022/02/12 10:20:28;;;;;;;20.77;9.90;;;;;;;;;;772309;180;1021039;-60
2022/02/12 10:22:52;;;;;;;11.07;6.17;;;;;;;;;;770316;179;918316;-60
2022/02/12 10:25:19;;;;;;;15.40;8.82;;;;;;;;;;766140;181;919451;-60
2022/02/12 10:27:46;;;;;;;8.80;3.70;;;;;;;;;;772698;180;922069;-60
2022/02/12 10:30:11;;;;;;;6.50;3.35;;;;;;;;;;773967;180;919649;-60
2022/02/12 10:32:36;;;;;;;14.52;7.95;;;;;;;;;;783136;178;1123751;-60
2022/02/12 10:35:02;;;;;;;6.93;4.10;;;;;;;;;;773062;177;920617;-60
2022/02/12 10:37:28;;;;;;;8.53;4.70;;;;;;;;;;774962;178;920614;-65
2022/02/12 10:39:54;;;;;;;14.13;5.10;;;;;;;;;;781398;180;918690;-66
2022/02/12 10:42:20;;;;;;;5.43;3.53;;;;;;;;;;775534;177;919478;-60
2022/02/12 10:44:46;;;;;;;4.40;2.40;;;;;;;;;;774339;178;917071;-60
2022/02/12 10:47:13;;;;;;;13.80;3.37;;;;;;;;;;779917;177;914073;-60
2022/02/12 10:49:37;;;;;;;11.17;7.10;;;;;;;;;;762357;182;1003427;-60
2022/02/12 10:52:03;;;;;;;5.50;2.90;;;;;;;;;;770950;181;1014902;-60
2022/02/12 10:54:30;;;;;;;5.65;3.33;;;;;;;;;;777156;180;923879;-59
2022/02/12 10:56:56;;;;;;;18.37;5.63;;;;;;;;;;773413;180;920287;-60
2022/02/12 10:59:22;;;;;;;6.25;3.70;;;;;;;;;;770652;177;919261;-60
2022/02/12 11:01:47;;;;;;;12.13;5.90;;;;;;;;;;774637;178;919579;-60
2022/02/12 11:04:14;;;;;;;16.57;6.57;;;;;;;;;;780237;177;927935;-60
2022/02/12 11:06:39;;;;;;;13.32;7.40;;;;;;;;;;771809;180;919799;-60
2022/02/12 11:09:05;;;;;;;9.90;4.13;;;;;;;;;;769414;179;919266;-61
2022/02/12 11:11:31;;;;;;;7.03;3.17;;;;;;;;;;780294;180;919479;-60
2022/02/12 11:13:58;;;;;;;12.40;5.03;;;;;;;;;;773315;181;919168;-60
2022/02/12 11:16:22;;;;;;;11.53;5.50;;;;;;;;;;775158;180;919738;-60
2022/02/12 11:18:48;;;;;;;15.07;6.57;;;;;;;;;;778656;178;918304;-60
2022/02/12 11:21:14;;;;;;;15.50;4.13;;;;;;;;;;764170;180;919589;-60
2022/02/12 11:23:40;;;;;;;6.40;3.97;;;;;;;;;;762311;181;921800;-60
2022/02/12 11:26:21;;;;;;;8.33;4.40;;;;;;;;;;772255;177;930552;-60
2022/02/12 11:28:46;;;;;;;5.40;2.80;;;;;;;;;;770954;178;919292;-60
2022/02/12 11:31:14;;;;;;;7.40;3.37;;;;;;;;;;769526;180;914792;-59
2022/02/12 11:33:40;;;;;;;14.30;4.97;;;;;;;;;;767551;181;615611;-60
2022/02/12 11:36:19;;;;;;;8.67;4.00;;;;;;;;;;776638;178;623292;-60
2022/02/12 11:38:45;;;;;;;10.03;5.60;;;;;;;;;;770941;180;918508;-60
2022/02/12 11:41:17;;;;;;;14.97;4.77;;;;;;;;;;774691;180;919593;-60
2022/02/12 11:43:42;;;;;;;5.67;2.30;;;;;;;;;;771874;177;919327;-60
2022/02/12 11:46:08;;;;;;;5.90;2.97;;;;;;;;;;776501;177;920616;-60
2022/02/12 11:48:38;;;;;;;9.33;4.20;;;;;;;;;;778993;177;918777;-60
2022/02/12 11:51:06;;;;;;;12.87;4.87;;;;;;;;;;769574;180;919753;-60
2022/02/12 11:53:37;;;;;;;7.73;4.07;;;;;;;;;;774486;180;919428;-60
2022/02/12 11:56:04;;;;;;;10.00;3.53;;;;;;;;;;771392;180;920356;-60
2022/02/12 11:58:36;;;;;;;10.50;5.40;;;;;;;;;;777718;178;917932;-59
2022/02/12 12:01:02;;;;;;;15.10;7.10;;;;;;;;;;775055;179;917838;-60
2022/02/12 12:03:28;;;;;;;14.82;7.15;;;;;;;;;;773824;178;920085;-60
2022/02/12 12:05:53;;;;;;;12.63;7.13;;;;;;;;;;773392;181;918965;-60
2022/02/12 12:08:19;;;;;;;5.73;4.00;;;;;;;;;;775832;177;918231;-60
2022/02/12 12:11:02;;;;;;;10.03;3.87;;;;;;;;;;762046;181;919035;-60
2022/02/12 12:13:37;;;;;;;51.23;19.90;;;;;;;;;;769726;180;919686;-61
2022/02/12 12:16:08;;;;;;;27.30;12.90;;;;;;;;;;771210;180;919715;-61
2022/02/12 12:18:37;;;;;;;14.23;8.70;;;;;;;;;;775709;178;911830;-60
2022/02/12 12:21:03;;;;;;;7.83;5.17;;;;;;;;;;758702;181;918863;-60
2022/02/12 12:23:29;;;;;;;6.23;4.23;;;;;;;;;;770196;181;919588;-61
2022/02/12 12:25:57;;;;;;;4.73;2.60;;;;;;;;;;769701;180;919422;-61
2022/02/12 12:28:27;;;;;;;6.57;3.30;;;;;;;;;;771039;178;919260;-61
2022/02/12 12:30:54;;;;;;;12.40;6.33;;;;;;;;;;775369;179;917504;-61
2022/02/12 12:33:19;;;;;;;8.97;3.60;;;;;;;;;;772689;181;919302;-63
2022/02/12 12:35:50;;;;;;;12.60;5.60;;;;;;;;;;772386;178;918196;-61
2022/02/12 12:38:15;;;;;;;10.67;4.60;;;;;;;;;;770158;180;919022;-61
2022/02/12 12:40:43;;;;;;;11.90;6.03;;;;;;;;;;777534;178;920787;-61
2022/02/12 12:43:07;;;;;;;10.97;5.70;;;;;;;;;;774702;177;917834;-61
2022/02/12 12:45:37;;;;;;;40.67;23.80;;;;;;;;;;772282;180;919217;-61
2022/02/12 12:48:03;;;;;;;12.97;5.77;;;;;;;;;;777149;179;919109;-61
2022/02/12 12:50:29;;;;;;;7.50;3.83;;;;;;;;;;774116;178;918699;-61
2022/02/12 12:52:59;;;;;;;5.25;3.15;;;;;;;;;;768541;177;1021956;-61
2022/02/12 12:55:25;;;;;;;5.87;3.57;;;;;;;;;;772507;180;919685;-61
2022/02/12 12:57:51;;;;;;;7.20;3.13;;;;;;;;;;781182;180;918987;-61
2022/02/12 13:00:17;;;;;;;5.73;3.90;;;;;;;;;;773049;178;917967;-60
2022/02/12 13:02:47;;;;;;;7.10;4.03;;;;;;;;;;764976;177;922296;-61
2022/02/12 13:05:13;;;;;;;7.62;3.40;;;;;;;;;;776196;180;919663;-60
2022/02/12 13:07:39;;;;;;;6.27;3.03;;;;;;;;;;781645;180;919193;-61
2022/02/12 13:10:05;;;;;;;5.87;3.47;;;;;;;;;;772452;179;1039595;-63
2022/02/12 13:12:35;;;;;;;9.90;3.57;;;;;;;;;;773820;178;919613;-61
2022/02/12 13:15:01;;;;;;;6.70;4.00;;;;;;;;;;780041;180;918962;-61
2022/02/12 13:17:27;;;;;;;8.50;4.87;;;;;;;;;;771836;180;919793;-61
2022/02/12 13:19:57;;;;;;;8.03;4.63;;;;;;;;;;771138;180;919724;-61
2022/02/12 13:22:22;;;;;;;6.73;3.63;;;;;;;;;;770408;179;1020417;-61
2022/02/12 13:24:51;;;;;;;8.27;3.75;;;;;;;;;;778715;180;918926;-61
2022/02/12 13:27:21;;;;;;;23.37;14.43;;;;;;;;;;771766;181;919279;-61
2022/02/12 13:29:47;;;;;;;7.50;4.50;;;;;;;;;;771560;180;944678;-61
2022/02/12 13:32:12;;;;;;;6.07;3.97;;;;;;;;;;775892;178;919443;-61
2022/02/12 13:34:41;;;;;;;8.20;4.67;;;;;;;;;;770691;180;920087;-61
2022/02/12 13:37:04;;;;;;;7.40;4.70;;;;;;;;;;770814;180;919506;-62
2022/02/12 13:39:30;;;;;;;20.47;11.40;;;;;;;;;;770770;180;920506;-61
2022/02/12 13:41:56;;;;;;;5.80;3.53;;;;;;;;;;777178;180;919168;-61
2022/02/12 13:44:27;;;;;;;15.03;5.00;;;;;;;;;;771020;180;918538;-60
2022/02/12 13:46:53;;;;;;;8.10;4.10;;;;;;;;;;771342;178;826152;-61
2022/02/12 13:49:20;;;;;;;25.50;10.93;;;;;;;;;;776638;180;919435;-61
2022/02/12 13:51:49;;;;;;;9.10;3.57;;;;;;;;;;770893;180;919432;-61
2022/02/12 13:54:15;;;;;;;71.10;22.03;;;;;;;;;;769278;180;920184;-61
2022/02/12 13:56:41;;;;;;;32.97;13.30;;;;;;;;;;769897;180;927040;-63
2022/02/12 13:59:06;;;;;;;57.97;24.63;;;;;;;;;;775222;180;921613;-61
2022/02/12 14:01:32;;;;;;;9.10;5.33;;;;;;;;;;768194;180;920018;-61
2022/02/12 14:03:58;;;;;;;20.13;9.90;;;;;;;;;;769773;180;919968;-61
2022/02/12 14:06:24;;;;;;;67.33;31.70;;;;;;;;;;776015;180;919377;-60
2022/02/12 14:08:51;;;;;;;20.87;11.30;;;;;;;;;;771088;177;960320;-61
2022/02/12 14:11:17;;;;;;;12.87;7.77;;;;;;;;;;761050;181;919443;-61
2022/02/12 14:13:42;;;;;;;38.53;18.83;;;;;;;;;;776790;180;914154;-62
2022/02/12 14:16:08;;;;;;;16.33;5.07;;;;;;;;;;772530;180;919628;-61